Time;durP1;ratioP1;P1;durP2;ratioP2;P2;SDS_P1;SDS_P2;PMS_P1;PMS_P2;Temp;Humidity;BMP_temperature;BMP_pressure;BME280_temperature;BME280_humidity;BME280_pressure;Samples;Min_cycle;Max_cycle;Signal;HPM_P1;HPM_P2
2023/07/14 00:00:35;;;;;;;3.35;1.25;;;;;;;16.78;100.00;99034.13;5050128;28;20031;-54
2023/07/14 00:03:00;;;;;;;;;;;;;;;16.77;100.00;99030.56;5047266;28;20020;-55
2023/07/14 00:05:31;;;;;;;6.05;1.13;;;;;;;16.69;100.00;99030.91;5053623;28;20348;-55
2023/07/14 00:07:57;;;;;;;4.63;1.30;;;;;;;16.65;100.00;99029.69;5044151;28;20030;-55
2023/07/14 00:10:31;;;;;;;5.00;1.30;;;;;;;16.51;100.00;99020.91;5042046;28;20032;-54
2023/07/14 00:12:59;;;;;;;6.50;1.30;;;;;;;16.50;100.00;99032.88;5050374;28;20063;-55
2023/07/14 00:15:24;;;;;;;2.42;1.30;;;;;;;16.34;100.00;99028.97;5051070;28;20036;-55
2023/07/14 00:17:53;;;;;;;3.83;1.40;;;;;;;16.29;100.00;99037.03;5062362;28;20036;-54
2023/07/14 00:20:26;;;;;;;3.70;1.27;;;;;;;16.34;100.00;99037.16;5048583;28;20386;-54
2023/07/14 00:22:52;;;;;;;4.82;1.40;;;;;;;16.37;100.00;99035.84;5047868;28;20079;-55
2023/07/14 00:25:18;;;;;;;3.55;1.50;;;;;;;16.36;100.00;99035.03;5054660;28;20029;-54
2023/07/14 00:27:44;;;;;;;3.08;1.50;;;;;;;16.31;100.00;99036.81;5052817;28;20036;-55
2023/07/14 00:30:15;;;;;;;5.25;1.70;;;;;;;16.23;100.00;99035.25;5062487;28;20499;-55
2023/07/14 00:32:40;;;;;;;5.15;1.58;;;;;;;16.32;100.00;99041.19;5049612;28;20025;-54
2023/07/14 00:35:22;;;;;;;4.80;1.65;;;;;;;16.20;100.00;99033.81;5065575;28;20360;-55
2023/07/14 00:37:49;;;;;;;4.00;1.30;;;;;;;16.11;100.00;99032.50;5061740;28;20428;-55
2023/07/14 00:40:18;;;;;;;3.25;1.30;;;;;;;16.04;100.00;99033.66;5046936;28;20111;-54
2023/07/14 00:42:47;;;;;;;5.28;1.23;;;;;;;16.04;100.00;99033.66;5049772;28;20029;-54
2023/07/14 00:45:17;;;;;;;7.78;1.55;;;;;;;16.06;100.00;99028.78;5079115;28;20027;-52
2023/07/14 00:47:46;;;;;;;3.95;1.25;;;;;;;16.09;100.00;99026.44;5059265;28;20098;-52
2023/07/14 00:50:21;;;;;;;2.58;1.55;;;;;;;16.02;100.00;99025.69;5046707;28;20116;-53
2023/07/14 00:52:48;;;;;;;7.00;1.50;;;;;;;15.99;100.00;99026.16;5051168;28;20032;-52
2023/07/14 00:55:43;;;;;;;4.28;1.70;;;;;;;15.91;100.00;99027.34;5044164;28;20050;-52
2023/07/14 00:58:29;;;;;;;5.47;2.17;;;;;;;15.70;100.00;99016.94;5065861;28;20057;-53
2023/07/14 01:01:24;;;;;;;3.70;1.52;;;;;;;15.59;100.00;99013.06;5055024;28;20028;-52
2023/07/14 01:03:55;;;;;;;3.28;1.50;;;;;;;15.43;100.00;99017.28;5039081;28;20476;-53
2023/07/14 01:06:28;;;;;;;4.05;1.50;;;;;;;15.33;100.00;99019.72;5047644;28;20472;-53
2023/07/14 01:09:00;;;;;;;5.53;1.70;;;;;;;15.23;100.00;99016.69;5050549;28;20111;-55
2023/07/14 01:12:00;;;;;;;5.78;1.88;;;;;;;15.16;100.00;99019.47;5050035;28;20360;-52
2023/07/14 01:14:32;;;;;;;5.03;1.70;;;;;;;15.15;100.00;99012.38;5059898;28;20081;-53
2023/07/14 01:16:59;;;;;;;4.85;1.63;;;;;;;15.13;100.00;99012.59;5055344;28;20101;-53
2023/07/14 01:19:59;;;;;;;4.43;1.80;;;;;;;15.04;100.00;99007.69;5070792;28;20119;-53
2023/07/14 01:22:46;;;;;;;5.03;1.80;;;;;;;14.98;100.00;99014.84;5025127;28;20044;-52
2023/07/14 01:25:20;;;;;;;4.55;1.70;;;;;;;14.96;100.00;99011.56;5045566;28;20020;-53
2023/07/14 01:27:46;;;;;;;4.75;2.08;;;;;;;15.00;100.00;99018.19;5054127;28;20035;-53
2023/07/14 01:30:13;;;;;;;4.25;1.77;;;;;;;14.90;100.00;99017.88;5063715;28;20021;-53
2023/07/14 01:32:45;;;;;;;6.38;2.00;;;;;;;14.90;100.00;99018.72;5052352;28;20029;-53
2023/07/14 01:35:12;;;;;;;3.20;1.70;;;;;;;14.78;100.00;99012.38;5051236;28;20067;-55
2023/07/14 01:37:39;;;;;;;5.57;1.80;;;;;;;14.75;100.00;99015.53;5052380;28;20028;-55
2023/07/14 01:40:26;;;;;;;4.22;2.00;;;;;;;14.69;100.00;99011.81;5073597;28;20036;-53
2023/07/14 01:42:56;;;;;;;5.38;1.80;;;;;;;14.64;100.00;99008.91;5060750;28;20507;-53
2023/07/14 01:45:26;;;;;;;3.28;1.50;;;;;;;14.56;100.00;99011.94;5053713;28;20028;-54
2023/07/14 01:47:54;;;;;;;3.78;1.35;;;;;;;14.54;100.00;99013.22;5059764;28;20112;-54
2023/07/14 01:50:22;;;;;;;3.17;1.70;;;;;;;14.45;100.00;99010.75;5058387;28;20029;-53
2023/07/14 01:52:53;;;;;;;2.53;1.70;;;;;;;14.44;100.00;99009.09;5066774;28;20370;-53
2023/07/14 01:55:20;;;;;;;3.83;1.70;;;;;;;14.41;100.00;99006.00;5052261;28;20032;-53
2023/07/14 01:57:49;;;;;;;5.85;1.95;;;;;;;14.39;100.00;99000.78;5074821;28;20020;-58
2023/07/14 02:00:16;;;;;;;3.75;1.75;;;;;;;14.38;100.00;98999.13;5058094;28;20029;-56
2023/07/14 02:02:43;;;;;;;3.53;1.67;;;;;;;14.38;100.00;99000.97;5070783;28;20025;-52
2023/07/14 02:05:41;;;;;;;4.18;1.90;;;;;;;14.40;100.00;98990.72;5070973;28;20033;-53
2023/07/14 02:08:24;;;;;;;2.35;1.30;;;;;;;14.26;100.00;98995.44;5030889;28;20032;-52
2023/07/14 02:10:50;;;;;;;4.90;1.50;;;;;;;14.24;100.00;98992.94;5043394;28;20025;-53
2023/07/14 02:13:15;;;;;;;2.22;1.30;;;;;;;14.20;100.00;98997.16;5046196;28;20021;-53
2023/07/14 02:15:41;;;;;;;2.85;1.42;;;;;;;14.16;100.00;98995.09;5042426;28;20534;-52
2023/07/14 02:18:12;;;;;;;7.10;1.65;;;;;;;14.07;100.00;98997.28;5067261;28;20032;-52
2023/07/14 02:20:41;;;;;;;4.57;1.63;;;;;;;14.00;100.00;98997.31;5058216;28;20028;-56
2023/07/14 02:23:13;;;;;;;3.58;2.05;;;;;;;13.98;100.00;98993.16;5046793;28;20020;-58
2023/07/14 02:25:46;;;;;;;3.97;1.80;;;;;;;13.96;100.00;98987.09;5079934;28;20097;-55
2023/07/14 02:28:12;;;;;;;3.80;1.52;;;;;;;13.98;100.00;98993.97;5066003;28;20023;-54
2023/07/14 02:30:41;;;;;;;6.70;2.08;;;;;;;13.90;100.00;98993.44;5048249;28;20028;-52
2023/07/14 02:33:15;;;;;;;6.25;2.00;;;;;;;13.86;100.00;98989.47;5058395;28;20472;-52
2023/07/14 02:36:03;;;;;;;2.72;1.70;;;;;;;13.85;100.00;98995.97;5054520;28;20028;-52
2023/07/14 02:38:28;;;;;;;5.47;1.80;;;;;;;13.84;100.00;98991.59;5049549;28;20467;-53
2023/07/14 02:41:02;;;;;;;4.18;1.52;;;;;;;13.75;100.00;99000.03;5063341;28;20279;-52
2023/07/14 02:43:27;;;;;;;8.32;1.75;;;;;;;13.77;100.00;98989.72;5063392;28;20070;-52
2023/07/14 02:45:57;;;;;;;6.47;1.77;;;;;;;13.76;100.00;98988.06;5067237;28;20029;-52
2023/07/14 02:48:39;;;;;;;5.32;1.70;;;;;;;13.81;100.00;98993.69;5052653;28;20028;-52
2023/07/14 02:51:05;;;;;;;2.63;1.45;;;;;;;13.71;100.00;98990.63;5067294;28;20032;-52
2023/07/14 02:53:30;;;;;;;4.03;1.48;;;;;;;13.55;100.00;98993.88;5048022;28;20036;-53
2023/07/14 02:55:56;;;;;;;7.95;2.17;;;;;;;13.38;100.00;98986.19;5050265;28;20116;-52
2023/07/14 02:58:21;;;;;;;4.25;1.70;;;;;;;13.32;100.00;98984.34;5062689;28;20418;-52
2023/07/14 03:00:47;;;;;;;7.50;2.10;;;;;;;13.30;100.00;98993.78;5063391;28;20472;-52
2023/07/14 03:03:12;;;;;;;5.68;1.92;;;;;;;13.31;100.00;98988.13;5059102;28;20366;-52
2023/07/14 03:05:38;;;;;;;7.82;2.63;;;;;;;13.24;100.00;98997.34;5044413;28;20029;-52
2023/07/14 03:08:07;;;;;;;7.57;2.13;;;;;;;13.34;100.00;98995.03;5052477;28;20116;-53
2023/07/14 03:10:34;;;;;;;;;;;;;;;13.32;100.00;98992.50;5060250;28;20021;-52
2023/07/14 03:13:00;;;;;;;8.23;2.17;;;;;;;13.31;100.00;98981.88;5054187;28;20045;-52
2023/07/14 03:15:25;;;;;;;4.40;2.25;;;;;;;13.33;100.00;98987.91;5066991;28;20481;-53
2023/07/14 03:17:51;;;;;;;3.72;1.90;;;;;;;13.31;100.00;98977.25;5032870;28;20032;-52
2023/07/14 03:20:17;;;;;;;4.15;2.15;;;;;;;13.28;100.00;98985.84;5035778;28;20104;-52
2023/07/14 03:22:43;;;;;;;4.30;1.95;;;;;;;13.29;100.00;98975.81;5055924;28;20037;-52
2023/07/14 03:25:09;;;;;;;3.20;1.67;;;;;;;13.22;100.00;98975.81;5048186;28;20027;-52
2023/07/14 03:27:35;;;;;;;7.07;2.17;;;;;;;13.11;100.00;98980.03;5059522;28;20099;-52
2023/07/14 03:30:00;;;;;;;6.97;2.17;;;;;;;13.14;100.00;98965.19;5073429;28;20105;-52
2023/07/14 03:32:26;;;;;;;5.72;2.08;;;;;;;13.18;100.00;98971.00;5043309;28;20078;-52
2023/07/14 03:34:51;;;;;;;3.75;1.75;;;;;;;13.14;100.00;98965.19;5039343;28;20478;-54
2023/07/14 03:37:16;;;;;;;4.72;1.83;;;;;;;13.07;100.00;98972.53;5052255;28;20025;-54
2023/07/14 03:39:42;;;;;;;4.40;1.95;;;;;;;13.01;100.00;98973.38;5046695;28;20024;-54
2023/07/14 03:42:07;;;;;;;5.13;1.70;;;;;;;12.93;100.00;98969.03;5049224;28;20138;-54
2023/07/14 03:44:33;;;;;;;3.13;1.50;;;;;;;12.94;100.00;98970.69;5049892;28;20017;-52
2023/07/14 03:46:59;;;;;;;2.25;1.80;;;;;;;13.00;100.00;98971.72;5046987;28;20365;-52
2023/07/14 03:49:25;;;;;;;5.30;1.90;;;;;;;12.99;100.00;98972.75;5056140;28;20039;-52
2023/07/14 03:51:52;;;;;;;3.05;1.95;;;;;;;12.96;100.00;98962.34;5057241;28;20032;-52
2023/07/14 03:54:17;;;;;;;4.57;1.92;;;;;;;12.90;100.00;98966.75;5056099;28;20056;-53
2023/07/14 03:56:44;;;;;;;3.60;1.50;;;;;;;12.99;100.00;98967.34;5062409;28;20094;-52
2023/07/14 03:59:10;;;;;;;8.80;1.95;;;;;;;13.19;100.00;98964.53;5065120;28;20024;-54
2023/07/14 04:01:35;;;;;;;4.90;2.00;;;;;;;13.30;100.00;98963.88;5050843;28;20032;-61
2023/07/14 04:04:00;;;;;;;3.03;2.03;;;;;;;13.39;100.00;98962.59;5064608;28;20028;-59
2023/07/14 04:06:26;;;;;;;5.43;1.85;;;;;;;13.49;100.00;98964.81;5062115;28;20224;-54
2023/07/14 04:08:55;;;;;;;9.02;2.40;;;;;;;13.59;100.00;98963.28;5043542;28;20062;-54
2023/07/14 04:11:20;;;;;;;8.77;2.42;;;;;;;13.72;100.00;98967.81;5054550;28;20024;-52
2023/07/14 04:13:46;;;;;;;4.68;2.10;;;;;;;13.99;100.00;98956.72;5052561;28;20037;-52
2023/07/14 04:16:11;;;;;;;3.40;2.05;;;;;;;14.18;100.00;98958.47;5049332;28;20024;-52
2023/07/14 04:18:37;;;;;;;6.03;1.83;;;;;;;14.42;100.00;98958.66;5049373;28;20029;-56
2023/07/14 04:21:11;;;;;;;3.42;1.60;;;;;;;14.62;100.00;98956.59;5054803;28;20134;-53
2023/07/14 04:23:39;;;;;;;4.35;1.73;;;;;;;14.74;100.00;98956.66;5064517;28;20032;-54
2023/07/14 04:26:14;;;;;;;2.55;1.60;;;;;;;14.91;100.00;98962.38;5041859;28;20105;-54
2023/07/14 04:28:39;;;;;;;2.35;1.70;;;;;;;14.99;100.00;98955.78;5042929;28;20028;-54
2023/07/14 04:31:05;;;;;;;7.95;2.00;;;;;;;15.04;100.00;98964.91;5058412;28;20028;-56
2023/07/14 04:33:30;;;;;;;3.75;1.63;;;;;;;15.22;100.00;98966.81;5057943;28;20465;-55
2023/07/14 04:35:57;;;;;;;3.40;1.85;;;;;;;15.27;100.00;98961.50;5047114;28;20035;-54
2023/07/14 04:38:23;;;;;;;6.35;1.88;;;;;;;15.38;100.00;98964.47;5055876;28;20482;-54
2023/07/14 04:40:49;;;;;;;2.88;1.52;;;;;;;15.26;100.00;98964.44;5064814;28;20032;-54
2023/07/14 04:43:15;;;;;;;4.15;1.92;;;;;;;15.13;100.00;98958.09;5043307;28;20371;-54
2023/07/14 04:45:44;;;;;;;2.63;1.70;;;;;;;15.09;100.00;98959.63;5044787;28;20049;-55
2023/07/14 04:48:13;;;;;;;4.22;1.80;;;;;;;15.16;100.00;98958.69;5056244;28;20108;-54
2023/07/14 04:50:39;;;;;;;5.88;2.28;;;;;;;15.26;100.00;98950.81;5058353;28;20032;-60
2023/07/14 04:53:06;;;;;;;4.38;2.08;;;;;;;15.38;100.00;98945.38;5068299;28;20051;-55
2023/07/14 04:55:35;;;;;;;4.53;2.20;;;;;;;15.57;100.00;98941.56;5063180;28;20028;-57
2023/07/14 04:58:01;;;;;;;4.70;1.42;;;;;;;15.92;100.00;98933.47;5048269;28;20037;-54
2023/07/14 05:00:26;;;;;;;5.05;1.85;;;;;;;16.08;100.00;98947.50;5044676;28;20094;-54
2023/07/14 05:02:52;;;;;;;10.02;1.73;;;;;;;16.25;100.00;98929.38;5042941;28;20028;-54
2023/07/14 05:05:20;;;;;;;3.63;2.00;;;;;;;16.36;100.00;98927.72;5076432;28;20028;-54
2023/07/14 05:07:47;;;;;;;4.97;1.73;;;;;;;16.73;100.00;98920.06;5056176;28;20479;-54
2023/07/14 05:10:12;;;;;;;3.50;1.67;;;;;;;17.05;100.00;98915.00;5052912;28;20023;-54
2023/07/14 05:12:37;;;;;;;3.30;1.60;;;;;;;17.37;100.00;98916.44;5051390;28;20039;-54
2023/07/14 05:15:05;;;;;;;8.93;1.85;;;;;;;17.29;100.00;98921.25;5047304;28;20029;-54
2023/07/14 05:17:32;;;;;;;3.45;1.75;;;;;;;17.55;100.00;98924.44;5052114;28;20046;-55
2023/07/14 05:19:58;;;;;;;5.57;2.10;;;;;;;17.67;100.00;98911.53;5063664;28;20111;-55
2023/07/14 05:22:23;;;;;;;3.45;1.85;;;;;;;17.53;100.00;98908.28;5048547;28;20108;-56
2023/07/14 05:24:49;;;;;;;5.47;2.10;;;;;;;17.53;100.00;98924.69;5045741;28;20059;-55
2023/07/14 05:27:14;;;;;;;4.47;2.08;;;;;;;17.47;100.00;98911.97;5042143;28;20036;-55
2023/07/14 05:29:40;;;;;;;3.65;1.77;;;;;;;17.90;100.00;98909.75;5041051;28;20068;-55
2023/07/14 05:32:06;;;;;;;4.35;1.85;;;;;;;17.99;100.00;98913.72;5043071;28;20052;-55
2023/07/14 05:34:31;;;;;;;5.15;2.00;;;;;;;18.68;100.00;98918.88;5059963;28;20111;-55
2023/07/14 05:36:57;;;;;;;4.38;1.90;;;;;;;18.71;100.00;98915.63;5054547;28;20123;-55
2023/07/14 05:39:22;;;;;;;5.55;1.80;;;;;;;18.85;100.00;98913.38;5045256;28;20039;-55
2023/07/14 05:41:48;;;;;;;9.00;2.15;;;;;;;19.04;100.00;98908.38;5046987;28;20028;-56
2023/07/14 05:44:14;;;;;;;4.85;1.88;;;;;;;19.29;100.00;98910.59;5062256;28;20080;-55
2023/07/14 05:46:39;;;;;;;4.00;1.65;;;;;;;19.67;100.00;98911.53;5046546;28;20020;-55
2023/07/14 05:49:05;;;;;;;2.55;1.30;;;;;;;20.10;100.00;98916.06;5065279;22;20671;-72
2023/07/14 05:51:31;;;;;;;4.53;1.83;;;;;;;20.49;100.00;98906.72;5046244;28;20029;-72
2023/07/14 05:53:56;;;;;;;2.47;1.73;;;;;;;20.90;100.00;98907.75;5045869;28;20048;-72
2023/07/14 05:56:22;;;;;;;4.68;1.85;;;;;;;20.87;100.00;98908.28;5041276;28;20033;-77
2023/07/14 05:58:47;;;;;;;4.70;1.40;;;;;;;21.23;100.00;98894.69;5029540;28;20490;-77
2023/07/14 06:01:12;;;;;;;2.67;1.70;;;;;;;20.57;100.00;98903.50;5021879;28;20033;-76
2023/07/14 06:03:38;;;;;;;4.82;1.80;;;;;;;20.61;100.00;98893.59;5029170;28;20029;-77
2023/07/14 06:06:05;;;;;;;7.10;1.75;;;;;;;21.11;100.00;98896.84;5030456;28;20068;-75
2023/07/14 06:08:30;;;;;;;4.32;1.55;;;;;;;21.23;100.00;98879.00;5031175;28;20032;-76
2023/07/14 06:10:56;;;;;;;4.53;1.50;;;;;;;21.05;100.00;98889.66;5029627;28;20033;-76
2023/07/14 06:13:22;;;;;;;6.18;1.80;;;;;;;21.40;100.00;98877.94;5040501;28;20033;-80
2023/07/14 06:15:53;;;;;;;4.65;1.60;;;;;;;21.32;100.00;98882.03;5033829;28;20112;-80
2023/07/14 06:18:54;;;;;;;3.40;1.45;;;;;;;21.30;100.00;98888.91;5031534;28;20507;-80
2023/07/14 06:21:42;;;;;;;6.95;1.80;;;;;;;21.52;100.00;98881.28;5037779;28;20040;-81
2023/07/14 06:26:45;;;;;;;3.85;1.58;;;;;;;21.29;100.00;98881.75;5043539;28;20484;-66
2023/07/14 06:29:10;;;;;;;8.05;1.65;;;;;;;20.76;100.00;98885.44;5049612;28;20029;-67
2023/07/14 06:31:36;;;;;;;6.15;1.70;;;;;;;20.92;100.00;98871.75;5046919;28;20044;-66
2023/07/14 06:34:01;;;;;;;3.70;1.60;;;;;;;20.28;100.00;98884.59;5046588;28;20132;-66
2023/07/14 06:36:27;;;;;;;3.17;1.42;;;;;;;20.50;100.00;98889.94;5052817;28;20368;-67
2023/07/14 06:38:52;;;;;;;13.05;1.65;;;;;;;20.58;100.00;98883.97;5045023;28;20416;-66
2023/07/14 06:41:18;;;;;;;4.15;1.40;;;;;;;21.51;100.00;98867.78;5042961;28;20468;-73
2023/07/14 06:43:43;;;;;;;6.03;1.52;;;;;;;22.31;100.00;98860.63;5063913;28;20025;-66
2023/07/14 06:46:10;;;;;;;4.20;1.30;;;;;;;23.11;100.00;98868.09;5043222;28;20066;-66
2023/07/14 06:48:35;;;;;;;4.68;1.40;;;;;;;24.76;100.00;98862.88;5035705;28;20082;-64
2023/07/14 06:51:00;;;;;;;3.80;1.70;;;;;;;25.33;99.04;98862.94;5041741;28;20028;-64
2023/07/14 06:53:26;;;;;;;7.03;1.42;;;;;;;25.69;92.43;98859.66;5042071;28;20076;-64
2023/07/14 06:55:52;;;;;;;7.80;1.20;;;;;;;26.81;88.38;98854.88;5033089;28;20021;-64
2023/07/14 06:58:18;;;;;;;11.10;1.63;;;;;;;28.38;77.22;98850.66;5038308;28;20055;-66
2023/07/14 07:00:43;;;;;;;8.38;1.55;;;;;;;29.13;69.17;98839.63;5052886;28;20047;-64
2023/07/14 07:03:09;;;;;;;9.43;1.50;;;;;;;29.61;62.93;98831.16;5050797;28;20055;-64
2023/07/14 07:05:39;;;;;;;5.28;1.23;;;;;;;31.01;57.82;98826.78;5064983;28;20025;-64
2023/07/14 07:08:09;;;;;;;4.32;1.27;;;;;;;32.88;51.94;98822.34;5047565;28;20119;-64
2023/07/14 07:10:34;;;;;;;7.35;1.40;;;;;;;33.94;47.45;98821.16;5048032;28;20028;-64
2023/07/14 07:13:00;;;;;;;3.67;1.20;;;;;;;33.04;48.27;98839.28;5048050;28;20029;-66
2023/07/14 07:15:26;;;;;;;5.97;1.58;;;;;;;32.88;48.04;98825.13;5041598;28;20032;-65
2023/07/14 07:17:51;;;;;;;6.50;1.40;;;;;;;32.24;48.95;98826.59;5042716;28;20021;-66
2023/07/14 07:20:17;;;;;;;8.73;1.60;;;;;;;33.64;46.53;98826.31;5041935;28;20030;-66
2023/07/14 07:22:44;;;;;;;8.65;1.55;;;;;;;33.82;45.57;98824.84;5054267;28;20025;-66
2023/07/14 07:25:10;;;;;;;6.38;1.40;;;;;;;33.44;45.08;98827.31;5041399;28;20064;-65
2023/07/14 07:27:35;;;;;;;13.27;1.40;;;;;;;30.91;48.63;98824.38;5049428;28;20054;-65
2023/07/14 07:30:02;;;;;;;6.32;1.40;;;;;;;29.45;51.51;98827.22;5046047;28;20024;-65
2023/07/14 07:32:28;;;;;;;8.25;1.58;;;;;;;32.14;48.92;98827.84;5053893;28;20055;-66
2023/07/14 07:34:59;;;;;;;6.57;1.42;;;;;;;33.10;46.60;98823.88;5063308;28;20178;-66
2023/07/14 07:37:24;;;;;;;7.63;1.52;;;;;;;34.03;45.29;98812.56;5040890;28;20385;-66
2023/07/14 07:39:53;;;;;;;11.43;1.70;;;;;;;36.76;40.74;98810.94;5055979;28;20021;-66
2023/07/14 07:42:19;;;;;;;3.85;0.95;;;;;;;38.30;38.25;98808.13;5041377;28;20040;-65
2023/07/14 07:44:45;;;;;;;6.97;1.25;;;;;;;40.49;34.52;98815.00;5047278;28;20032;-67
2023/07/14 07:47:12;;;;;;;4.90;1.02;;;;;;;38.63;34.05;98814.09;5043337;28;20033;-67
2023/07/14 07:49:38;;;;;;;8.05;1.38;;;;;;;39.66;32.77;98809.09;5041846;28;20025;-67
2023/07/14 07:52:04;;;;;;;3.92;1.00;;;;;;;37.11;34.43;98810.72;5052478;28;20718;-67
2023/07/14 07:54:29;;;;;;;5.60;1.15;;;;;;;36.29;34.69;98814.94;5047165;28;20084;-67
2023/07/14 07:56:54;;;;;;;7.32;1.58;;;;;;;35.74;35.74;98810.28;5045850;28;20032;-67
2023/07/14 07:59:20;;;;;;;3.67;1.00;;;;;;;36.74;34.65;98810.53;5038018;28;20025;-67
2023/07/14 08:01:45;;;;;;;6.97;1.02;;;;;;;38.17;32.91;98801.13;5044337;28;20033;-67
2023/07/14 08:04:12;;;;;;;5.95;1.23;;;;;;;37.70;34.70;98788.50;5046849;28;20024;-67
2023/07/14 08:06:38;;;;;;;6.22;1.13;;;;;;;37.79;33.30;98797.50;5044074;28;20388;-67
2023/07/14 08:09:04;;;;;;;4.60;1.20;;;;;;;37.56;33.11;98794.78;5051062;28;20031;-67
2023/07/14 08:11:30;;;;;;;5.88;1.05;;;;;;;37.78;32.96;98786.56;5052671;28;20037;-68
2023/07/14 08:13:58;;;;;;;3.83;0.88;;;;;;;38.52;31.51;98785.75;5052321;28;20160;-67
2023/07/14 08:16:25;;;;;;;4.50;1.13;;;;;;;38.89;32.06;98788.47;5045206;28;20170;-68
2023/07/14 08:18:50;;;;;;;8.40;1.20;;;;;;;38.79;31.71;98772.22;5049852;28;20021;-68
2023/07/14 08:21:17;;;;;;;8.30;1.23;;;;;;;38.68;31.44;98769.31;5049934;28;20029;-68
2023/07/14 08:23:42;;;;;;;3.00;1.10;;;;;;;39.15;31.47;98770.44;5049567;28;20090;-68
2023/07/14 08:26:08;;;;;;;6.88;1.10;;;;;;;38.79;31.40;98772.22;5041398;28;20030;-67
2023/07/14 08:28:34;;;;;;;4.43;1.08;;;;;;;38.25;31.83;98771.75;5061293;28;20060;-67
2023/07/14 08:31:06;;;;;;;4.47;1.20;;;;;;;39.03;31.18;98767.94;5050914;28;20067;-67
2023/07/14 08:33:33;;;;;;;5.85;1.20;;;;;;;39.01;31.11;98764.69;5038801;28;20052;-68
2023/07/14 08:36:00;;;;;;;3.60;1.05;;;;;;;38.79;30.89;98760.91;5035841;28;20025;-68
2023/07/14 08:38:27;;;;;;;5.63;0.98;;;;;;;40.13;29.91;98766.75;5046515;28;20531;-68
2023/07/14 08:41:03;;;;;;;5.53;0.90;;;;;;;38.29;30.45;98766.13;5039404;28;20112;-68
2023/07/14 08:43:44;;;;;;;2.03;0.88;;;;;;;38.62;30.13;98762.41;5045951;28;20021;-68
2023/07/14 08:46:16;;;;;;;2.78;0.93;;;;;;;38.90;30.09;98744.03;5048055;28;20028;-66
2023/07/14 08:48:50;;;;;;;3.25;1.00;;;;;;;39.16;29.44;98757.09;5051149;28;20024;-70
2023/07/14 08:51:20;;;;;;;6.60;0.90;;;;;;;39.49;29.57;98752.44;5064025;28;20020;-68
2023/07/14 08:54:02;;;;;;;7.47;1.05;;;;;;;39.45;29.23;98747.53;5049339;28;20043;-68
2023/07/14 08:56:33;;;;;;;7.13;0.80;;;;;;;39.35;29.41;98753.97;5051190;28;20112;-68
2023/07/14 08:58:59;;;;;;;2.80;0.80;;;;;;;40.33;27.73;98749.41;5050300;28;20464;-68
2023/07/14 09:01:52;;;;;;;2.15;0.60;;;;;;;39.85;28.11;98754.19;5043919;28;20030;-68
2023/07/14 09:04:24;;;;;;;3.70;0.85;;;;;;;36.47;30.40;98736.34;5035422;28;20484;-68
2023/07/14 09:06:50;;;;;;;3.75;0.73;;;;;;;35.28;31.61;98736.16;5035513;28;20038;-67
2023/07/14 09:09:19;;;;;;;2.78;0.90;;;;;;;36.30;31.10;98735.69;5040200;28;20021;-67
2023/07/14 09:11:53;;;;;;;4.57;0.90;;;;;;;34.53;31.99;98737.22;5042131;28;20457;-66
2023/07/14 09:14:34;;;;;;;2.55;0.90;;;;;;;34.83;31.64;98729.94;5059747;28;20607;-67
2023/07/14 09:16:59;;;;;;;3.30;0.77;;;;;;;35.28;31.97;98745.41;5047863;28;20033;-67
2023/07/14 09:19:39;;;;;;;3.78;0.88;;;;;;;33.78;33.28;98745.34;5046410;28;20357;-66
2023/07/14 09:22:18;;;;;;;2.75;0.90;;;;;;;33.37;33.55;98732.53;5039602;28;20388;-67
2023/07/14 09:25:05;;;;;;;3.88;1.05;;;;;;;32.23;35.16;98736.19;5041081;28;20017;-67
2023/07/14 09:27:31;;;;;;;3.58;1.00;;;;;;;32.02;35.00;98741.88;5045241;28;20032;-67
2023/07/14 09:29:59;;;;;;;1.67;0.82;;;;;;;32.17;35.40;98731.97;5047458;28;20025;-67
2023/07/14 09:32:30;;;;;;;2.35;1.20;;;;;;;32.04;35.58;98735.94;5046237;28;20082;-67
2023/07/14 09:35:12;;;;;;;9.65;1.20;;;;;;;32.12;36.35;98740.59;5045377;28;20119;-66
2023/07/14 09:38:03;;;;;;;2.88;0.80;;;;;;;32.41;35.02;98731.19;5048170;28;20116;-65
2023/07/14 09:40:34;;;;;;;4.45;1.08;;;;;;;32.24;35.09;98732.22;5058585;28;20418;-67
2023/07/14 09:43:01;;;;;;;3.83;0.90;;;;;;;33.85;34.15;98716.63;5047300;28;20071;-67
2023/07/14 09:45:26;;;;;;;5.40;0.93;;;;;;;34.30;33.43;98729.47;5046977;28;20091;-67
2023/07/14 09:48:19;;;;;;;9.68;1.30;;;;;;;33.60;33.95;98730.00;5046380;28;20464;-67
2023/07/14 09:51:02;;;;;;;3.40;0.80;;;;;;;33.85;34.54;98727.06;5032278;28;20036;-67
2023/07/14 09:53:31;;;;;;;6.60;0.90;;;;;;;33.35;34.66;98726.47;5035211;28;20052;-67
2023/07/14 09:56:01;;;;;;;3.42;1.10;;;;;;;32.94;34.67;98720.88;5038225;28;20029;-67
2023/07/14 09:58:29;;;;;;;2.22;0.90;;;;;;;32.66;34.91;98718.00;5038369;28;20370;-67
2023/07/14 10:00:57;;;;;;;4.00;0.95;;;;;;;32.06;35.77;98726.03;5050477;28;20025;-67
2023/07/14 10:03:29;;;;;;;4.77;1.07;;;;;;;31.82;36.50;98714.78;5046745;28;20085;-67
2023/07/14 10:05:55;;;;;;;4.20;1.00;;;;;;;30.85;38.22;98718.78;5039900;28;20291;-66
2023/07/14 10:08:34;;;;;;;9.05;1.27;;;;;;;30.18;38.97;98726.81;5040302;28;20111;-67
2023/07/14 10:11:17;;;;;;;3.72;1.05;;;;;;;30.75;37.98;98712.41;5060044;28;20660;-67
2023/07/14 10:13:49;;;;;;;4.35;0.90;;;;;;;31.36;37.23;98708.31;5033387;28;20061;-64
2023/07/14 10:16:17;;;;;;;2.97;0.90;;;;;;;31.69;37.25;98699.13;5041777;28;20107;-64
2023/07/14 10:18:47;;;;;;;3.05;1.10;;;;;;;32.23;36.89;98697.00;5063170;28;20442;-64
2023/07/14 10:21:21;;;;;;;6.90;1.02;;;;;;;31.85;36.99;98694.50;5039953;28;20025;-64
2023/07/14 10:23:57;;;;;;;7.40;1.10;;;;;;;31.17;37.58;98701.25;5051506;28;20408;-65
2023/07/14 10:26:26;;;;;;;2.60;0.82;;;;;;;31.33;37.70;98693.03;5043434;28;20060;-65
2023/07/14 10:28:51;;;;;;;1.83;1.02;;;;;;;31.27;37.25;98691.63;5049916;28;20078;-66
2023/07/14 10:31:35;;;;;;;4.15;0.80;;;;;;;30.98;37.37;98684.16;5042575;28;20037;-66
2023/07/14 10:34:19;;;;;;;3.88;1.20;;;;;;;30.55;37.85;98690.88;5041444;28;20033;-66
2023/07/14 10:36:44;;;;;;;6.38;1.02;;;;;;;30.99;38.72;98680.19;5049142;28;20127;-65
2023/07/14 10:39:32;;;;;;;3.08;0.90;;;;;;;31.00;38.00;98684.66;5031009;28;20405;-66
2023/07/14 10:41:59;;;;;;;4.43;1.38;;;;;;;30.98;37.68;98678.56;5041776;28;20021;-65
2023/07/14 10:44:30;;;;;;;3.92;1.00;;;;;;;30.99;38.15;98677.41;5048915;28;20469;-66
2023/07/14 10:47:02;;;;;;;5.25;0.95;;;;;;;30.98;37.79;98673.00;5040737;28;20043;-66
2023/07/14 10:49:59;;;;;;;2.53;0.93;;;;;;;32.29;36.87;98677.97;5049456;28;20392;-66
2023/07/14 10:52:42;;;;;;;3.00;1.13;;;;;;;32.99;36.20;98663.75;5048124;28;20033;-66
2023/07/14 10:55:19;;;;;;;3.70;1.00;;;;;;;33.35;36.17;98673.19;5051196;28;20061;-66
2023/07/14 10:57:51;;;;;;;3.10;0.80;;;;;;;33.55;36.23;98668.56;5048006;28;20064;-66
2023/07/14 11:00:56;;;;;;;2.95;0.80;;;;;;;33.14;35.87;98670.59;5053726;28;20033;-66
2023/07/14 11:03:32;;;;;;;2.63;0.80;;;;;;;33.00;36.05;98664.56;5048680;28;20472;-66
2023/07/14 11:06:12;;;;;;;3.75;1.08;;;;;;;32.32;35.88;98663.28;5044531;28;20120;-66
2023/07/14 11:08:37;;;;;;;1.38;0.77;;;;;;;32.74;34.74;98663.00;5034482;28;20071;-66
2023/07/14 11:11:22;;;;;;;3.83;0.95;;;;;;;32.97;34.81;98657.69;5045866;28;20380;-66
2023/07/14 11:14:03;;;;;;;2.90;0.95;;;;;;;32.48;35.40;98652.19;5051935;28;20048;-65
2023/07/14 11:17:06;;;;;;;3.20;1.00;;;;;;;32.79;35.26;98645.94;5049493;28;20099;-63
2023/07/14 11:20:12;;;;;;;2.30;1.10;;;;;;;32.55;36.33;98644.03;5022418;28;20106;-63
2023/07/14 11:22:49;;;;;;;1.95;1.00;;;;;;;32.72;36.42;98649.38;5041943;28;20114;-62
2023/07/14 11:25:31;;;;;;;2.88;1.02;;;;;;;32.74;35.83;98634.97;5044359;28;20029;-62
2023/07/14 11:27:56;;;;;;;6.63;1.10;;;;;;;33.77;36.06;98639.06;5037564;28;20453;-62
2023/07/14 11:30:29;;;;;;;3.88;0.98;;;;;;;33.70;35.08;98638.91;5049822;28;20119;-63
2023/07/14 11:33:14;;;;;;;3.60;1.27;;;;;;;33.68;34.40;98636.44;5043104;28;20553;-63
2023/07/14 11:36:01;;;;;;;4.40;0.90;;;;;;;34.90;34.42;98634.53;5050838;28;20048;-62
2023/07/14 11:38:38;;;;;;;2.03;0.93;;;;;;;35.56;32.93;98629.78;5045416;28;20439;-63
2023/07/14 11:41:05;;;;;;;1.35;0.90;;;;;;;37.02;31.48;98624.81;5046417;28;20037;-63
2023/07/14 11:43:31;;;;;;;3.35;1.40;;;;;;;38.07;30.27;98621.03;5044779;28;20017;-63
2023/07/14 11:46:02;;;;;;;3.58;1.05;;;;;;;37.43;31.31;98613.56;5050934;28;20025;-63